sensor_id;sensor_type;location;lat;lon;timestamp;temperature;humidity
30250;DHT22;17064;47.974;13.826;2023-04-01T00:00:24;9.00;99.90
30250;DHT22;17064;47.974;13.826;2023-04-01T00:05:25;8.90;99.90
30250;DHT22;17064;47.974;13.826;2023-04-01T00:10:25;8.80;99.90
30250;DHT22;17064;47.974;13.826;2023-04-01T00:15:26;8.80;99.90
30250;DHT22;17064;47.974;13.826;2023-04-01T00:20:27;8.70;99.90
30250;DHT22;17064;47.974;13.826;2023-04-01T00:25:28;8.70;99.90
30250;DHT22;17064;47.974;13.826;2023-04-01T00:30:29;8.70;99.90
30250;DHT22;17064;47.974;13.826;2023-04-01T00:35:30;8.70;99.90
30250;DHT22;17064;47.974;13.826;2023-04-01T00:40:33;8.70;99.90
30250;DHT22;17064;47.974;13.826;2023-04-01T00:45:36;8.70;99.90
30250;DHT22;17064;47.974;13.826;2023-04-01T00:50:40;8.70;99.90
30250;DHT22;17064;47.974;13.826;2023-04-01T00:55:49;8.70;99.90
30250;DHT22;17064;47.974;13.826;2023-04-01T01:00:51;8.80;99.90
30250;DHT22;17064;47.974;13.826;2023-04-01T01:06:14;8.70;99.90
30250;DHT22;17064;47.974;13.826;2023-04-01T01:11:37;8.70;99.90
30250;DHT22;17064;47.974;13.826;2023-04-01T01:16:44;8.70;99.90
30250;DHT22;17064;47.974;13.826;2023-04-01T01:27:40;8.50;99.90
30250;DHT22;17064;47.974;13.826;2023-04-01T01:33:13;8.50;99.90
30250;DHT22;17064;47.974;13.826;2023-04-01T01:38:19;8.30;99.90
30250;DHT22;17064;47.974;13.826;2023-04-01T01:43:25;8.30;99.90
30250;DHT22;17064;47.974;13.826;2023-04-01T01:48:27;8.20;99.90
30250;DHT22;17064;47.974;13.826;2023-04-01T01:53:29;8.20;99.90
30250;DHT22;17064;47.974;13.826;2023-04-01T01:58:36;8.20;99.90
30250;DHT22;17064;47.974;13.826;2023-04-01T02:03:42;8.20;99.90
30250;DHT22;17064;47.974;13.826;2023-04-01T02:09:06;8.20;99.90
30250;DHT22;17064;47.974;13.826;2023-04-01T02:14:12;8.20;99.90
30250;DHT22;17064;47.974;13.826;2023-04-01T02:19:16;8.20;99.90
30250;DHT22;17064;47.974;13.826;2023-04-01T02:24:23;8.00;99.90
30250;DHT22;17064;47.974;13.826;2023-04-01T02:29:27;7.90;99.90
30250;DHT22;17064;47.974;13.826;2023-04-01T02:34:28;7.80;99.90
30250;DHT22;17064;47.974;13.826;2023-04-01T02:39:29;7.80;99.90
30250;DHT22;17064;47.974;13.826;2023-04-01T02:44:30;7.70;99.90
30250;DHT22;17064;47.974;13.826;2023-04-01T02:49:31;7.60;99.90
30250;DHT22;17064;47.974;13.826;2023-04-01T02:54:33;7.60;99.90
30250;DHT22;17064;47.974;13.826;2023-04-01T02:59:34;7.50;99.90
30250;DHT22;17064;47.974;13.826;2023-04-01T03:04:35;7.50;99.90
30250;DHT22;17064;47.974;13.826;2023-04-01T03:09:36;7.40;99.90
30250;DHT22;17064;47.974;13.826;2023-04-01T03:14:37;7.40;99.90
30250;DHT22;17064;47.974;13.826;2023-04-01T03:19:38;7.30;99.90
30250;DHT22;17064;47.974;13.826;2023-04-01T03:24:39;7.30;99.90
30250;DHT22;17064;47.974;13.826;2023-04-01T03:29:39;7.20;99.90
30250;DHT22;17064;47.974;13.826;2023-04-01T03:34:40;7.10;99.90
30250;DHT22;17064;47.974;13.826;2023-04-01T03:39:41;7.00;99.90
30250;DHT22;17064;47.974;13.826;2023-04-01T03:44:42;7.00;99.90
30250;DHT22;17064;47.974;13.826;2023-04-01T03:49:42;7.00;99.90
30250;DHT22;17064;47.974;13.826;2023-04-01T03:54:43;7.00;99.90
30250;DHT22;17064;47.974;13.826;2023-04-01T03:59:44;6.90;99.90
30250;DHT22;17064;47.974;13.826;2023-04-01T04:04:45;6.90;99.90
30250;DHT22;17064;47.974;13.826;2023-04-01T04:09:46;6.90;99.90
30250;DHT22;17064;47.974;13.826;2023-04-01T04:14:48;7.00;99.90
30250;DHT22;17064;47.974;13.826;2023-04-01T04:19:49;6.90;99.90
30250;DHT22;17064;47.974;13.826;2023-04-01T04:24:49;6.90;99.90
30250;DHT22;17064;47.974;13.826;2023-04-01T04:29:50;6.80;99.90
30250;DHT22;17064;47.974;13.826;2023-04-01T04:34:51;6.80;99.90
30250;DHT22;17064;47.974;13.826;2023-04-01T04:39:52;6.90;99.90
30250;DHT22;17064;47.974;13.826;2023-04-01T04:44:52;6.90;99.90
30250;DHT22;17064;47.974;13.826;2023-04-01T04:49:53;7.00;99.90
30250;DHT22;17064;47.974;13.826;2023-04-01T04:54:54;7.00;99.90
30250;DHT22;17064;47.974;13.826;2023-04-01T04:59:55;7.10;99.90
30250;DHT22;17064;47.974;13.826;2023-04-01T05:04:56;7.10;99.90
30250;DHT22;17064;47.974;13.826;2023-04-01T05:09:56;7.10;99.90
30250;DHT22;17064;47.974;13.826;2023-04-01T05:14:57;7.10;99.90
30250;DHT22;17064;47.974;13.826;2023-04-01T05:19:58;7.10;99.90
30250;DHT22;17064;47.974;13.826;2023-04-01T05:24:59;7.00;99.90
30250;DHT22;17064;47.974;13.826;2023-04-01T05:29:59;7.00;99.90
30250;DHT22;17064;47.974;13.826;2023-04-01T05:35:01;7.00;99.90
30250;DHT22;17064;47.974;13.826;2023-04-01T05:40:03;6.90;99.90
30250;DHT22;17064;47.974;13.826;2023-04-01T05:45:04;7.00;99.90
30250;DHT22;17064;47.974;13.826;2023-04-01T05:50:05;7.00;99.90
30250;DHT22;17064;47.974;13.826;2023-04-01T05:55:07;7.10;99.90
30250;DHT22;17064;47.974;13.826;2023-04-01T06:00:08;7.20;99.90
30250;DHT22;17064;47.974;13.826;2023-04-01T06:05:23;7.30;99.90
30250;DHT22;17064;47.974;13.826;2023-04-01T06:11:16;7.50;99.90
30250;DHT22;17064;47.974;13.826;2023-04-01T06:21:47;7.80;99.90
30250;DHT22;17064;47.974;13.826;2023-04-01T06:27:16;7.90;99.90
30250;DHT22;17064;47.974;13.826;2023-04-01T06:59:11;8.40;99.90
30250;DHT22;17064;47.974;13.826;2023-04-01T07:09:28;8.40;99.90
30250;DHT22;17064;47.974;13.826;2023-04-01T07:14:35;8.50;99.90
30250;DHT22;17064;47.974;13.826;2023-04-01T07:19:45;8.50;99.90
30250;DHT22;17064;47.974;13.826;2023-04-01T07:24:48;8.50;99.90
30250;DHT22;17064;47.974;13.826;2023-04-01T07:29:49;8.70;99.90
30250;DHT22;17064;47.974;13.826;2023-04-01T07:35:09;8.70;99.90
30250;DHT22;17064;47.974;13.826;2023-04-01T07:40:32;8.80;99.90
30250;DHT22;17064;47.974;13.826;2023-04-01T07:51:17;9.20;99.90
30250;DHT22;17064;47.974;13.826;2023-04-01T08:01:52;9.60;99.90
30250;DHT22;17064;47.974;13.826;2023-04-01T08:12:12;10.00;99.90
30250;DHT22;17064;47.974;13.826;2023-04-01T08:22:37;10.00;99.90
30250;DHT22;17064;47.974;13.826;2023-04-01T08:27:45;10.10;99.90
30250;DHT22;17064;47.974;13.826;2023-04-01T08:33:00;10.20;99.90
30250;DHT22;17064;47.974;13.826;2023-04-01T08:38:14;10.60;99.90
30250;DHT22;17064;47.974;13.826;2023-04-01T08:43:26;10.90;99.90
30250;DHT22;17064;47.974;13.826;2023-04-01T08:59:37;10.60;99.90
30250;DHT22;17064;47.974;13.826;2023-04-01T09:16:13;10.70;99.90
30250;DHT22;17064;47.974;13.826;2023-04-01T09:21:34;10.70;99.90
30250;DHT22;17064;47.974;13.826;2023-04-01T09:42:43;10.80;99.90
30250;DHT22;17064;47.974;13.826;2023-04-01T09:47:57;11.20;99.90
30250;DHT22;17064;47.974;13.826;2023-04-01T11:02:40;13.30;94.00
30250;DHT22;17064;47.974;13.826;2023-04-01T11:51:08;14.80;84.20
30250;DHT22;17064;47.974;13.826;2023-04-01T12:12:46;14.70;82.70
30250;DHT22;17064;47.974;13.826;2023-04-01T12:18:00;13.40;93.80
30250;DHT22;17064;47.974;13.826;2023-04-01T12:23:14;13.30;99.90
30250;DHT22;17064;47.974;13.826;2023-04-01T12:39:22;14.30;94.80
30250;DHT22;17064;47.974;13.826;2023-04-01T12:50:16;15.70;92.50
30250;DHT22;17064;47.974;13.826;2023-04-01T13:10:56;15.10;86.40
30250;DHT22;17064;47.974;13.826;2023-04-01T13:16:24;14.50;84.90
30250;DHT22;17064;47.974;13.826;2023-04-01T13:21:40;14.20;89.60
30250;DHT22;17064;47.974;13.826;2023-04-01T13:27:01;14.00;89.70
30250;DHT22;17064;47.974;13.826;2023-04-01T13:32:36;14.10;90.40
30250;DHT22;17064;47.974;13.826;2023-04-01T13:54:07;15.10;74.80
30250;DHT22;17064;47.974;13.826;2023-04-01T14:20:55;14.50;89.80
30250;DHT22;17064;47.974;13.826;2023-04-01T14:49:14;12.40;91.60
30250;DHT22;17064;47.974;13.826;2023-04-01T14:59:41;11.10;98.80
30250;DHT22;17064;47.974;13.826;2023-04-01T15:04:47;10.60;99.90
30250;DHT22;17064;47.974;13.826;2023-04-01T15:14:57;10.30;99.90
30250;DHT22;17064;47.974;13.826;2023-04-01T15:25:34;10.20;99.90
30250;DHT22;17064;47.974;13.826;2023-04-01T15:41:14;10.10;99.90
30250;DHT22;17064;47.974;13.826;2023-04-01T15:46:39;10.00;99.90
30250;DHT22;17064;47.974;13.826;2023-04-01T16:30:02;9.60;99.90
30250;DHT22;17064;47.974;13.826;2023-04-01T16:51:22;9.00;99.90
30250;DHT22;17064;47.974;13.826;2023-04-01T16:56:27;8.90;99.90
30250;DHT22;17064;47.974;13.826;2023-04-01T17:23:36;8.10;99.90
30250;DHT22;17064;47.974;13.826;2023-04-01T17:28:52;8.00;99.90
30250;DHT22;17064;47.974;13.826;2023-04-01T17:39:46;7.90;99.90
30250;DHT22;17064;47.974;13.826;2023-04-01T17:56:02;7.90;99.90
30250;DHT22;17064;47.974;13.826;2023-04-01T18:28:43;7.60;99.90
30250;DHT22;17064;47.974;13.826;2023-04-01T18:39:22;7.50;99.90
30250;DHT22;17064;47.974;13.826;2023-04-01T18:44:52;7.50;99.90
30250;DHT22;17064;47.974;13.826;2023-04-01T18:55:35;7.50;99.90
30250;DHT22;17064;47.974;13.826;2023-04-01T19:00:44;7.60;99.90
30250;DHT22;17064;47.974;13.826;2023-04-01T19:05:48;7.70;99.90
30250;DHT22;17064;47.974;13.826;2023-04-01T19:10:57;7.70;99.90
30250;DHT22;17064;47.974;13.826;2023-04-01T19:37:54;7.80;99.90
30250;DHT22;17064;47.974;13.826;2023-04-01T19:54:14;8.00;99.90
30250;DHT22;17064;47.974;13.826;2023-04-01T19:59:22;8.00;99.90
30250;DHT22;17064;47.974;13.826;2023-04-01T20:04:29;8.10;99.90
30250;DHT22;17064;47.974;13.826;2023-04-01T20:10:11;8.10;99.90
30250;DHT22;17064;47.974;13.826;2023-04-01T20:15:37;8.10;99.90
30250;DHT22;17064;47.974;13.826;2023-04-01T20:20:41;8.10;99.90
30250;DHT22;17064;47.974;13.826;2023-04-01T20:26:08;8.20;99.90
30250;DHT22;17064;47.974;13.826;2023-04-01T20:58:43;8.30;99.90
30250;DHT22;17064;47.974;13.826;2023-04-01T21:20:22;8.20;99.90
30250;DHT22;17064;47.974;13.826;2023-04-01T21:36:38;8.10;99.90
30250;DHT22;17064;47.974;13.826;2023-04-01T22:07:59;7.80;99.90
30250;DHT22;17064;47.974;13.826;2023-04-01T22:13:12;7.70;99.90
30250;DHT22;17064;47.974;13.826;2023-04-01T22:29:17;7.60;99.90
30250;DHT22;17064;47.974;13.826;2023-04-01T22:40:22;7.60;99.90
30250;DHT22;17064;47.974;13.826;2023-04-01T22:51:18;7.50;99.90
30250;DHT22;17064;47.974;13.826;2023-04-01T22:56:40;7.50;99.90
30250;DHT22;17064;47.974;13.826;2023-04-01T23:02:21;7.40;99.90
30250;DHT22;17064;47.974;13.826;2023-04-01T23:12:30;7.30;99.90
30250;DHT22;17064;47.974;13.826;2023-04-01T23:18:05;7.20;99.90
30250;DHT22;17064;47.974;13.826;2023-04-01T23:23:12;7.30;99.90
30250;DHT22;17064;47.974;13.826;2023-04-01T23:38:24;7.30;99.90
30250;DHT22;17064;47.974;13.826;2023-04-01T23:43:28;7.40;99.90
30250;DHT22;17064;47.974;13.826;2023-04-01T23:48:43;7.50;99.90
30250;DHT22;17064;47.974;13.826;2023-04-01T23:53:46;7.50;99.90
30250;DHT22;17064;47.974;13.826;2023-04-01T23:58:49;7.50;99.90
